Time;durP1;ratioP1;P1;durP2;ratioP2;P2;SDS_P1;SDS_P2;PMS_P1;PMS_P2;Temp;Humidity;BMP_temperature;BMP_pressure;BME280_temperature;BME280_humidity;BME280_pressure;Samples;Min_cycle;Max_cycle;Signal;HPM_P1;HPM_P2
2022/01/24 00:02:01;;;;;;;36.25;24.50;;;5.30;99.90;;;;;;5110901;28;20051;-72
2022/01/24 00:04:27;;;;;;;37.70;24.00;;;5.60;99.90;;;;;;5109538;28;20071;-72
2022/01/24 00:06:53;;;;;;;34.22;23.83;;;;;;;;;;5109847;28;20102;-72
2022/01/24 00:09:19;;;;;;;37.17;24.35;;;5.40;99.90;;;;;;5109552;28;20506;-72
2022/01/24 00:11:58;;;;;;;31.75;22.23;;;5.20;99.90;;;;;;5110888;28;20384;-72
2022/01/24 00:17:17;;;;;;;32.65;22.63;;;5.20;99.90;;;;;;5110703;28;20043;-72
2022/01/24 00:27:57;;;;;;;29.10;21.00;;;4.80;99.90;;;;;;5110718;28;20058;-72
2022/01/24 00:30:27;;;;;;;30.52;21.40;;;5.30;99.90;;;;;;5110833;28;20056;-72
2022/01/24 00:32:52;;;;;;;27.52;19.52;;;4.70;99.90;;;;;;5110380;28;20055;-72
2022/01/24 00:35:18;;;;;;;26.42;19.63;;;5.20;99.90;;;;;;5110554;28;20047;-72
2022/01/24 00:37:44;;;;;;;26.45;20.08;;;5.10;99.90;;;;;;5109516;28;20039;-72
2022/01/24 00:40:11;;;;;;;25.52;19.52;;;5.10;99.90;;;;;;5110672;28;20032;-72
2022/01/24 00:55:17;;;;;;;23.00;17.77;;;5.60;99.90;;;;;;5113247;28;20058;-72
2022/01/24 00:57:43;;;;;;;19.67;15.82;;;;;;;;;;5114680;28;20051;-72
2022/01/24 01:00:11;;;;;;;17.88;14.98;;;5.20;99.90;;;;;;5114838;28;20047;-72
2022/01/24 01:02:38;;;;;;;19.33;15.18;;;5.40;99.90;;;;;;5113336;28;20111;-72
2022/01/24 01:05:27;;;;;;;20.05;14.93;;;5.20;99.90;;;;;;5113312;28;20044;-72
2022/01/24 01:18:34;;;;;;;18.05;14.38;;;5.10;99.90;;;;;;5113005;28;20051;-72
2022/01/24 01:21:14;;;;;;;19.60;15.13;;;5.40;99.90;;;;;;5113004;28;20559;-72
2022/01/24 01:23:48;;;;;;;19.65;15.15;;;5.30;99.90;;;;;;5112956;28;20492;-72
2022/01/24 01:26:24;;;;;;;20.25;15.43;;;5.10;99.90;;;;;;5114241;28;20051;-72
2022/01/24 01:28:57;;;;;;;18.88;14.27;;;5.20;99.90;;;;;;5112684;28;20055;-72
2022/01/24 01:34:35;;;;;;;17.17;14.10;;;5.10;99.90;;;;;;5112248;28;20117;-72
2022/01/24 01:40:26;;;;;;;17.40;13.70;;;4.80;99.90;;;;;;5112678;28;20062;-72
2022/01/24 01:55:39;;;;;;;21.60;14.90;;;5.00;99.90;;;;;;5114016;28;20044;-71
2022/01/24 01:58:14;;;;;;;20.38;15.70;;;5.00;99.90;;;;;;5113659;28;20050;-72
2022/01/24 02:00:43;;;;;;;19.95;15.30;;;5.30;99.90;;;;;;5112450;28;20483;-72
2022/01/24 02:03:09;;;;;;;22.88;15.73;;;5.10;99.90;;;;;;5112182;28;20032;-72
2022/01/24 02:05:35;;;;;;;18.90;14.60;;;5.10;99.90;;;;;;5095407;28;20457;-72
2022/01/24 02:08:01;;;;;;;18.67;14.90;;;5.10;99.90;;;;;;5112292;28;20035;-72
2022/01/24 02:10:27;;;;;;;21.70;15.73;;;;;;;;;;5113779;28;20105;-72
2022/01/24 02:12:55;;;;;;;19.60;14.90;;;;;;;;;;5112972;28;20058;-72
2022/01/24 02:15:53;;;;;;;20.58;15.35;;;4.60;99.90;;;;;;5112918;28;20452;-72
2022/01/24 02:18:16;;;;;;;21.02;15.02;;;5.10;99.90;;;;;;5111520;28;20052;-72
2022/01/24 02:23:39;;;;;;;19.40;15.23;;;5.00;99.90;;;;;;5111599;28;20054;-72
2022/01/24 02:26:10;;;;;;;19.03;15.27;;;3.90;99.90;;;;;;5112834;28;20035;-72
2022/01/24 02:34:25;;;;;;;18.70;15.15;;;4.60;99.90;;;;;;5111419;28;20576;-72
2022/01/24 02:36:51;;;;;;;;;;;5.20;99.90;;;;;;5094509;28;20043;-72
2022/01/24 02:49:56;;;;;;;24.63;18.50;;;5.10;99.90;;;;;;5111115;28;20043;-72
2022/01/24 02:52:25;;;;;;;21.77;17.13;;;5.20;99.90;;;;;;5110865;28;20055;-72
2022/01/24 02:54:51;;;;;;;25.73;17.30;;;4.90;99.90;;;;;;5110627;28;20058;-72
2022/01/24 02:57:19;;;;;;;23.05;17.95;;;;;;;;;;5110568;28;20047;-72
2022/01/24 02:59:45;;;;;;;24.25;17.20;;;;;;;;;;5110706;28;20105;-72
2022/01/24 03:02:11;;;;;;;22.75;16.90;;;;;;;;;;5110614;28;20089;-72
2022/01/24 03:04:37;;;;;;;22.70;17.20;;;;;;;;;;5111095;28;20433;-72
2022/01/24 03:07:03;;;;;;;26.77;19.67;;;;;;;;;;5110340;28;20039;-72
2022/01/24 03:09:29;;;;;;;24.90;19.15;;;;;;;;;;5093382;28;20069;-72
2022/01/24 03:14:27;;;;;;;24.25;18.15;;;5.00;99.90;;;;;;5110369;28;20062;-72
2022/01/24 03:16:53;;;;;;;25.02;18.35;;;5.00;99.90;;;;;;5110697;28;20465;-72
2022/01/24 03:19:19;;;;;;;24.83;18.58;;;5.10;99.90;;;;;;5110298;28;20127;-72
2022/01/24 03:21:45;;;;;;;26.35;19.45;;;;;;;;;;5110434;28;20130;-72
2022/01/24 03:24:13;;;;;;;31.10;21.45;;;5.10;99.90;;;;;;5110454;28;20039;-72
2022/01/24 03:26:40;;;;;;;31.00;21.98;;;5.00;99.90;;;;;;5093236;28;20040;-72
2022/01/24 03:29:06;;;;;;;30.42;22.23;;;;;;;;;;5110829;28;20090;-72
2022/01/24 03:31:34;;;;;;;32.65;22.85;;;5.10;99.90;;;;;;5110557;28;20469;-72
2022/01/24 03:34:00;;;;;;;35.67;23.83;;;5.20;99.90;;;;;;5110696;28;20369;-72
2022/01/24 03:36:28;;;;;;;33.97;23.75;;;5.00;99.90;;;;;;5093117;28;20083;-72
2022/01/24 03:38:54;;;;;;;32.97;23.42;;;;;;;;;;5109762;28;20047;-72
2022/01/24 03:41:20;;;;;;;34.33;24.40;;;4.70;99.90;;;;;;5092973;28;20066;-72
2022/01/24 03:43:46;;;;;;;33.92;23.95;;;4.70;99.90;;;;;;5109800;28;20043;-72
2022/01/24 03:48:53;;;;;;;35.40;25.60;;;4.90;99.90;;;;;;5109714;28;20049;-72
2022/01/24 03:51:22;;;;;;;40.05;26.13;;;5.10;99.90;;;;;;5110012;28;20077;-72
2022/01/24 03:53:49;;;;;;;37.17;25.88;;;5.20;99.90;;;;;;5109744;28;20043;-73
2022/01/24 03:56:16;;;;;;;39.35;27.17;;;5.00;99.90;;;;;;5110045;28;20047;-73
2022/01/24 03:58:44;;;;;;;37.45;26.05;;;4.90;99.90;;;;;;5110042;28;20080;-72
2022/01/24 04:01:10;;;;;;;35.35;24.48;;;5.80;99.90;;;;;;5109698;28;20485;-72
2022/01/24 04:03:38;;;;;;;36.90;24.95;;;5.00;99.90;;;;;;5093031;28;20043;-72
2022/01/24 04:06:05;;;;;;;35.90;25.08;;;5.00;99.90;;;;;;5109828;28;20039;-72
2022/01/24 04:08:31;;;;;;;40.03;26.00;;;5.10;99.90;;;;;;5109588;28;20499;-72
2022/01/24 04:10:58;;;;;;;40.40;27.25;;;;;;;;;;5092637;28;20096;-72
2022/01/24 04:13:37;;;;;;;40.17;27.85;;;4.80;99.90;;;;;;5109405;28;20043;-72
2022/01/24 04:24:18;;;;;;;47.75;31.27;;;5.00;99.90;;;;;;5030714;28;20055;-72
2022/01/24 04:26:44;;;;;;;48.28;31.90;;;;;;;;;;5031149;28;20049;-72
2022/01/24 04:29:10;;;;;;;45.17;29.95;;;5.20;99.90;;;;;;5031016;28;20095;-72
2022/01/24 04:31:36;;;;;;;47.30;31.00;;;5.20;99.90;;;;;;5030863;28;20496;-72
2022/01/24 04:34:02;;;;;;;48.45;31.30;;;5.10;99.90;;;;;;5030791;28;20087;-72
2022/01/24 04:36:28;;;;;;;48.45;31.17;;;5.10;99.90;;;;;;5030922;28;20056;-72
2022/01/24 04:38:55;;;;;;;49.58;31.55;;;4.90;99.90;;;;;;5014520;28;20566;-72
2022/01/24 04:41:28;;;;;;;49.88;32.60;;;4.70;99.90;;;;;;5030725;28;20144;-72
2022/01/24 04:54:42;;;;;;;55.17;36.00;;;;;;;;;;5030632;28;20571;-72
2022/01/24 04:57:09;;;;;;;;;;;5.00;99.90;;;;;;5014955;28;20057;-72
2022/01/24 04:59:36;;;;;;;54.45;35.25;;;4.90;99.90;;;;;;5060968;28;19930;-72
2022/01/24 05:02:03;;;;;;;55.60;35.40;;;4.90;99.90;;;;;;5092377;28;20403;-72
2022/01/24 05:04:29;;;;;;;50.78;33.47;;;4.80;99.90;;;;;;5109090;28;20157;-72
2022/01/24 05:07:01;;;;;;;54.08;32.75;;;5.10;99.90;;;;;;5109009;28;20044;-72
2022/01/24 05:09:31;;;;;;;54.70;33.55;;;4.90;99.90;;;;;;5091930;28;20043;-72
2022/01/24 05:12:03;;;;;;;55.72;33.55;;;;;;;;;;5091685;28;20051;-72
2022/01/24 05:25:26;;;;;;;64.05;39.47;;;;;;;;;;5108805;28;20540;-72
2022/01/24 05:27:55;;;;;;;67.88;40.45;;;4.80;99.90;;;;;;5108833;28;20080;-72
2022/01/24 05:30:21;;;;;;;69.55;40.92;;;;;;;;;;5109546;28;20044;-72
2022/01/24 05:32:47;;;;;;;67.68;39.92;;;4.80;99.90;;;;;;5109202;28;20073;-72
2022/01/24 05:35:13;;;;;;;67.45;39.13;;;;;;;;;;5112470;28;20047;-72
2022/01/24 05:37:39;;;;;;;66.15;40.08;;;;;;;;;;5114048;28;20108;-71
2022/01/24 05:40:07;;;;;;;68.93;41.20;;;5.00;99.90;;;;;;5113968;28;20134;-72
2022/01/24 05:42:33;;;;;;;70.32;40.28;;;4.80;99.90;;;;;;5112551;28;20100;-72
2022/01/24 05:44:59;;;;;;;64.28;38.63;;;;;;;;;;5112857;28;20039;-72
2022/01/24 05:47:25;;;;;;;67.65;38.38;;;4.80;99.90;;;;;;5113479;28;20547;-72
2022/01/24 05:49:50;;;;;;;68.20;40.13;;;4.90;99.90;;;;;;5112155;28;20046;-72
2022/01/24 05:52:16;;;;;;;65.15;39.72;;;5.00;99.90;;;;;;5113692;28;20048;-72
2022/01/24 05:54:42;;;;;;;69.53;39.75;;;;;;;;;;5113573;28;20083;-72
2022/01/24 05:57:09;;;;;;;65.28;39.83;;;5.00;99.90;;;;;;5113492;28;20040;-72
2022/01/24 05:59:36;;;;;;;68.65;40.30;;;4.80;99.90;;;;;;5111794;28;20085;-72
2022/01/24 06:02:03;;;;;;;69.20;39.67;;;5.20;99.90;;;;;;5099032;27;20436;-72
2022/01/24 06:04:29;;;;;;;74.78;41.67;;;;;;;;;;5109410;27;20047;-72
2022/01/24 06:06:55;;;;;;;67.47;40.00;;;;;;;;;;5106347;27;20078;-72
2022/01/24 06:09:21;;;;;;;72.93;40.90;;;5.00;99.90;;;;;;5104209;27;20040;-72
2022/01/24 06:11:47;;;;;;;72.10;41.50;;;4.80;99.90;;;;;;5119257;27;20051;-72
2022/01/24 06:14:13;;;;;;;72.80;41.58;;;;;;;;;;5114865;27;20423;-72
2022/01/24 06:16:40;;;;;;;73.20;40.75;;;;;;;;;;5110298;28;20047;-72
2022/01/24 06:19:06;;;;;;;75.03;40.03;;;4.70;99.90;;;;;;5099434;27;20471;-72
2022/01/24 06:21:32;;;;;;;75.05;41.78;;;4.90;99.90;;;;;;5113404;27;20087;-72
2022/01/24 06:23:57;;;;;;;72.85;41.28;;;4.80;99.90;;;;;;5132349;27;20505;-72
2022/01/24 06:26:27;;;;;;;73.15;40.63;;;;;;;;;;5131142;27;20494;-72
2022/01/24 06:28:54;;;;;;;75.65;42.03;;;4.70;99.90;;;;;;5130988;27;20043;-72
2022/01/24 06:31:20;;;;;;;73.70;40.95;;;4.90;99.90;;;;;;5090995;28;20351;-73
2022/01/24 06:33:48;;;;;;;73.38;41.65;;;;;;;;;;5090953;28;20404;-72
2022/01/24 06:36:14;;;;;;;72.95;40.17;;;;;;;;;;5091385;28;20452;-72
2022/01/24 06:38:40;;;;;;;76.65;42.15;;;;;;;;;;5090903;28;20066;-73
2022/01/24 06:41:06;;;;;;;77.47;42.30;;;5.00;99.90;;;;;;5090716;28;20086;-72
2022/01/24 06:43:32;;;;;;;80.15;41.75;;;;;;;;;;5090479;28;20075;-72
2022/01/24 06:45:58;;;;;;;77.18;42.90;;;4.80;99.90;;;;;;5090034;28;20055;-73
2022/01/24 06:48:23;;;;;;;82.07;44.22;;;4.80;99.90;;;;;;5091948;28;20040;-73
2022/01/24 06:50:50;;;;;;;85.72;45.70;;;5.00;99.90;;;;;;5091748;28;20043;-72
2022/01/24 06:53:16;;;;;;;85.22;46.00;;;4.90;99.90;;;;;;5090860;28;20193;-73
2022/01/24 06:55:42;;;;;;;77.95;43.47;;;5.00;99.90;;;;;;5097751;27;20542;-72
2022/01/24 06:58:07;;;;;;;82.97;45.03;;;5.00;99.90;;;;;;5109499;28;20498;-70
2022/01/24 07:00:36;;;;;;;86.88;45.65;;;4.80;99.90;;;;;;5109915;28;20039;-70
2022/01/24 07:03:04;;;;;;;88.22;46.28;;;4.80;99.90;;;;;;5109779;28;20051;-70
2022/01/24 07:05:30;;;;;;;81.47;44.38;;;;;;;;;;5110296;28;20092;-70
2022/01/24 07:07:57;;;;;;;85.78;46.17;;;5.00;99.90;;;;;;5111274;28;20094;-70
2022/01/24 07:10:24;;;;;;;87.20;45.72;;;4.80;99.90;;;;;;5110094;28;20170;-70
2022/01/24 07:12:51;;;;;;;92.28;46.22;;;;;;;;;;5109445;28;20047;-70
2022/01/24 07:15:19;;;;;;;84.25;46.20;;;4.40;99.90;;;;;;5110911;28;20058;-70
2022/01/24 07:20:12;;;;;;;84.68;45.33;;;5.00;99.90;;;;;;5109655;28;20479;-70
2022/01/24 07:22:37;;;;;;;85.93;45.53;;;4.80;99.90;;;;;;5126710;27;20104;-70
2022/01/24 07:25:03;;;;;;;89.82;46.83;;;4.90;99.90;;;;;;5126783;27;20053;-70
2022/01/24 07:27:29;;;;;;;83.43;44.88;;;4.80;99.90;;;;;;5110791;28;20042;-71
2022/01/24 07:29:55;;;;;;;92.35;46.20;;;;;;;;;;5109887;28;20093;-70
2022/01/24 07:32:21;;;;;;;94.18;45.67;;;;;;;;;;5109380;28;20047;-70
2022/01/24 07:34:47;;;;;;;89.30;45.22;;;;;;;;;;5110907;28;20047;-70
2022/01/24 07:37:13;;;;;;;89.50;46.08;;;5.00;99.90;;;;;;5109210;28;20558;-70
2022/01/24 07:39:39;;;;;;;93.80;46.42;;;;;;;;;;5092337;28;20062;-70
2022/01/24 07:42:15;;;;;;;88.78;46.03;;;4.90;99.90;;;;;;5109314;28;20054;-70
2022/01/24 07:44:41;;;;;;;;;;;4.80;99.90;;;;;;5109922;28;20036;-70
2022/01/24 07:47:06;;;;;;;85.22;44.22;;;5.00;99.90;;;;;;5109126;28;19919;-70
2022/01/24 07:49:34;;;;;;;99.65;46.63;;;;;;;;;;5110413;28;20036;-71
2022/01/24 07:52:00;;;;;;;91.53;46.47;;;4.90;99.90;;;;;;5106465;28;20043;-70
2022/01/24 07:54:26;;;;;;;97.75;46.75;;;4.80;99.90;;;;;;5110167;28;20143;-70
2022/01/24 07:56:52;;;;;;;87.47;46.45;;;;;;;;;;5108626;28;20475;-70
2022/01/24 07:59:20;;;;;;;96.82;47.03;;;4.70;99.90;;;;;;5108858;28;20088;-70
2022/01/24 08:01:46;;;;;;;92.80;48.72;;;4.90;99.90;;;;;;5110495;28;20473;-70
2022/01/24 08:04:12;;;;;;;94.72;47.75;;;4.80;99.90;;;;;;5108889;28;20040;-70
2022/01/24 08:06:38;;;;;;;88.50;46.17;;;5.00;99.90;;;;;;5110258;28;20043;-70
2022/01/24 08:09:06;;;;;;;99.25;49.45;;;4.90;99.90;;;;;;5109599;28;20368;-70
2022/01/24 08:11:31;;;;;;;90.53;49.00;;;5.00;99.90;;;;;;5109442;28;20093;-70
2022/01/24 08:13:57;;;;;;;93.97;47.65;;;;;;;;;;5109011;28;20059;-70
2022/01/24 08:16:24;;;;;;;90.88;48.67;;;5.20;99.90;;;;;;5110825;28;20079;-70
2022/01/24 08:18:52;;;;;;;91.07;49.25;;;5.10;99.90;;;;;;5111667;28;20382;-70
2022/01/24 08:21:19;;;;;;;85.93;48.20;;;5.10;99.90;;;;;;5109748;28;20051;-70
2022/01/24 08:23:45;;;;;;;83.43;47.72;;;5.00;99.90;;;;;;5110816;28;20038;-70
2022/01/24 08:26:11;;;;;;;74.90;46.05;;;;;;;;;;5109676;28;20395;-70
2022/01/24 08:28:37;;;;;;;81.30;47.00;;;4.50;99.90;;;;;;5092062;28;20570;-70
2022/01/24 08:31:03;;;;;;;75.60;46.47;;;;;;;;;;5110570;28;20035;-70
2022/01/24 08:33:29;;;;;;;74.13;47.45;;;;;;;;;;5109449;28;20047;-70
2022/01/24 08:35:55;;;;;;;77.80;47.42;;;4.90;99.90;;;;;;5108759;28;20036;-70
2022/01/24 08:38:21;;;;;;;78.68;48.50;;;4.90;99.90;;;;;;5110218;28;20035;-71
2022/01/24 08:40:51;;;;;;;74.78;47.88;;;5.10;99.90;;;;;;5109108;28;20082;-70
2022/01/24 08:43:37;;;;;;;74.05;48.00;;;5.30;99.90;;;;;;5109031;28;20044;-70
2022/01/24 08:46:04;;;;;;;76.18;48.65;;;5.10;99.90;;;;;;5109035;28;20384;-70
2022/01/24 08:48:31;;;;;;;70.22;47.50;;;5.10;99.90;;;;;;5108104;28;20035;-70
2022/01/24 08:50:59;;;;;;;72.60;47.85;;;5.40;99.90;;;;;;5108735;28;20043;-70
2022/01/24 08:53:30;;;;;;;71.88;48.30;;;5.10;99.90;;;;;;5110655;28;20051;-70
2022/01/24 08:56:00;;;;;;;68.72;47.42;;;5.10;99.90;;;;;;5110737;28;20035;-70
2022/01/24 08:58:26;;;;;;;69.78;49.25;;;5.40;99.90;;;;;;5108992;28;20050;-70
2022/01/24 09:00:52;;;;;;;70.68;48.75;;;5.10;99.90;;;;;;5110747;28;20035;-70
2022/01/24 09:03:19;;;;;;;71.97;49.40;;;5.30;99.90;;;;;;5126415;28;20144;-70
2022/01/24 09:05:47;;;;;;;70.30;48.45;;;4.90;99.90;;;;;;5109239;28;20047;-70
2022/01/24 09:08:14;;;;;;;60.78;44.60;;;;;;;;;;5111156;28;20483;-70
2022/01/24 09:10:43;;;;;;;62.78;43.58;;;5.20;99.90;;;;;;5113320;28;20075;-70
2022/01/24 09:13:09;;;;;;;62.83;44.95;;;;;;;;;;5115058;28;20438;-70
2022/01/24 09:15:35;;;;;;;71.03;46.45;;;5.50;99.90;;;;;;5114623;28;20105;-70
2022/01/24 09:18:04;;;;;;;73.75;47.70;;;5.40;99.90;;;;;;5114387;28;20465;-70
2022/01/24 09:20:30;;;;;;;76.25;48.85;;;;;;;;;;5113046;28;20118;-70
2022/01/24 09:22:56;;;;;;;77.20;47.45;;;4.80;99.90;;;;;;5112810;28;20039;-70
2022/01/24 09:25:23;;;;;;;68.97;45.40;;;5.00;99.90;;;;;;5114211;28;20455;-70
2022/01/24 09:27:49;;;;;;;64.75;44.30;;;5.30;99.90;;;;;;5112606;28;20365;-70
2022/01/24 09:30:17;;;;;;;65.80;44.20;;;5.50;99.90;;;;;;5113811;28;20048;-70
2022/01/24 09:32:44;;;;;;;64.55;45.25;;;5.30;99.90;;;;;;5112572;28;20058;-70
2022/01/24 09:35:12;;;;;;;66.47;45.08;;;5.30;99.90;;;;;;5113792;28;20043;-70
2022/01/24 09:37:38;;;;;;;67.38;44.15;;;5.00;99.90;;;;;;5113736;28;20054;-70
2022/01/24 09:40:04;;;;;;;57.60;42.17;;;5.30;99.90;;;;;;5113711;28;20048;-70
2022/01/24 09:42:31;;;;;;;54.47;40.88;;;5.40;99.90;;;;;;5112543;28;20126;-71
2022/01/24 09:44:57;;;;;;;57.53;41.95;;;5.20;99.90;;;;;;5113532;28;20050;-70
2022/01/24 09:47:23;;;;;;;49.33;39.20;;;5.70;99.90;;;;;;5113169;28;20539;-70
2022/01/24 09:49:51;;;;;;;54.38;40.85;;;4.80;99.90;;;;;;5112284;28;20039;-70
2022/01/24 09:52:17;;;;;;;46.85;37.92;;;4.90;99.90;;;;;;5113470;28;20491;-70
2022/01/24 09:54:44;;;;;;;50.78;39.00;;;;;;;;;;5112190;28;20054;-70
2022/01/24 09:57:10;;;;;;;52.88;40.22;;;;;;;;;;5112668;28;20085;-71
2022/01/24 09:59:36;;;;;;;51.30;40.15;;;5.30;99.90;;;;;;5111895;28;20047;-70
2022/01/24 10:02:03;;;;;;;51.97;39.78;;;5.40;99.90;;;;;;5111808;28;20066;-70
2022/01/24 10:04:29;;;;;;;50.58;39.65;;;;;;;;;;5112082;28;20039;-70
2022/01/24 10:07:01;;;;;;;52.88;40.42;;;5.30;99.90;;;;;;5111595;28;20090;-71
2022/01/24 10:09:40;;;;;;;52.92;39.17;;;5.40;99.90;;;;;;5111892;28;20449;-70
2022/01/24 10:16:24;;;;;;;55.78;40.33;;;5.50;99.90;;;;;;5112976;27;20045;-70
2022/01/24 10:18:01;;;;;;;52.63;40.75;;;5.50;99.90;;;;;;5111590;28;20145;-70
2022/01/24 10:20:33;;;;;;;54.67;40.33;;;5.60;99.90;;;;;;5110780;28;20047;-70
2022/01/24 10:23:16;;;;;;;54.85;40.83;;;5.50;99.90;;;;;;5111726;28;20058;-70
2022/01/24 10:25:59;;;;;;;52.28;40.95;;;5.80;99.90;;;;;;5113328;28;20032;-70
2022/01/24 10:28:37;;;;;;;52.22;40.50;;;5.80;99.90;;;;;;5111841;28;20047;-72
2022/01/24 10:31:12;;;;;;;53.35;40.42;;;5.80;99.90;;;;;;5094623;28;20362;-70
2022/01/24 10:36:42;;;;;;;48.97;38.53;;;5.80;99.90;;;;;;5111845;28;20122;-70
2022/01/24 10:39:08;;;;;;;57.70;40.15;;;;;;;;;;5111237;28;20047;-70
2022/01/24 10:44:34;;;;;;;59.67;43.63;;;5.50;99.90;;;;;;5111177;28;20211;-70
2022/01/24 10:47:24;;;;;;;57.75;42.53;;;5.40;99.90;;;;;;5111069;28;20039;-73
2022/01/24 10:49:51;;;;;;;60.40;44.53;;;5.60;99.90;;;;;;5111022;28;20535;-73
2022/01/24 10:52:23;;;;;;;57.67;44.33;;;5.50;99.90;;;;;;5110974;28;20556;-72
2022/01/24 10:54:52;;;;;;;58.42;44.10;;;5.90;99.90;;;;;;5112329;28;20407;-73
2022/01/24 10:57:28;;;;;;;59.25;44.08;;;6.20;99.90;;;;;;5112272;28;20475;-73
2022/01/24 11:00:05;;;;;;;57.38;43.92;;;5.30;99.90;;;;;;5112895;28;20039;-73
2022/01/24 11:02:42;;;;;;;61.15;44.30;;;5.50;99.90;;;;;;5110663;28;20434;-73
2022/01/24 11:05:16;;;;;;;59.78;44.70;;;5.40;99.90;;;;;;5112605;28;20047;-73
2022/01/24 11:08:00;;;;;;;57.60;43.35;;;5.50;99.90;;;;;;5111006;28;20039;-73
2022/01/24 11:10:29;;;;;;;57.08;42.50;;;5.00;99.90;;;;;;5112076;27;20071;-73
2022/01/24 11:12:55;;;;;;;55.15;43.70;;;5.50;99.90;;;;;;5112013;28;20491;-73
2022/01/24 11:15:23;;;;;;;57.03;43.88;;;5.70;99.90;;;;;;5110526;28;20055;-73
2022/01/24 11:17:50;;;;;;;52.30;40.63;;;5.30;99.90;;;;;;5110780;28;20054;-73
2022/01/24 11:20:29;;;;;;;53.90;41.38;;;5.60;99.90;;;;;;5112142;28;20047;-73
2022/01/24 11:22:58;;;;;;;55.25;43.58;;;;;;;;;;5110481;28;20580;-73
2022/01/24 11:25:25;;;;;;;54.03;42.70;;;5.50;99.90;;;;;;5110550;28;20058;-73
2022/01/24 11:27:51;;;;;;;51.80;40.70;;;6.10;99.90;;;;;;5110481;28;20055;-73
2022/01/24 11:30:48;;;;;;;52.47;40.80;;;5.50;99.90;;;;;;5107135;27;20443;-73
2022/01/24 11:33:22;;;;;;;48.22;37.33;;;6.20;99.90;;;;;;5115695;27;20055;-73
2022/01/24 11:35:52;;;;;;;53.22;39.55;;;5.30;99.90;;;;;;5116935;27;20079;-73
2022/01/24 11:38:31;;;;;;;50.70;39.17;;;5.80;99.90;;;;;;5115022;27;20521;-73
2022/01/24 11:41:04;;;;;;;51.67;39.25;;;5.50;99.90;;;;;;5122267;27;20054;-71
2022/01/24 11:43:41;;;;;;;57.88;43.58;;;5.60;99.90;;;;;;5106053;27;20488;-71
2022/01/24 11:46:31;;;;;;;56.20;42.80;;;5.60;99.90;;;;;;5113364;27;20083;-71
2022/01/24 11:49:07;;;;;;;55.65;40.95;;;5.40;99.90;;;;;;5092439;28;20509;-71
2022/01/24 11:51:33;;;;;;;51.28;38.53;;;5.40;99.90;;;;;;5108651;28;20055;-71
2022/01/24 11:54:01;;;;;;;52.95;40.22;;;5.50;99.90;;;;;;5109607;28;20048;-73
2022/01/24 11:56:31;;;;;;;50.55;38.60;;;5.70;99.90;;;;;;5108422;28;20055;-73
2022/01/24 11:59:22;;;;;;;45.55;35.58;;;5.70;99.90;;;;;;5109256;28;20043;-73
2022/01/24 12:02:05;;;;;;;50.22;38.33;;;4.90;99.90;;;;;;5109140;28;20423;-71
2022/01/24 12:05:00;;;;;;;47.03;35.85;;;4.90;99.90;;;;;;5108517;28;20140;-71
2022/01/24 12:07:31;;;;;;;48.60;37.45;;;5.80;99.90;;;;;;5109912;27;20455;-71
2022/01/24 12:10:22;;;;;;;50.15;39.33;;;5.50;99.90;;;;;;5090660;28;20043;-71
2022/01/24 12:13:01;;;;;;;44.67;36.00;;;5.50;99.90;;;;;;5109158;28;20506;-71
2022/01/24 12:15:48;;;;;;;43.72;35.08;;;4.70;99.90;;;;;;5110710;28;20068;-71
2022/01/24 12:18:26;;;;;;;44.47;36.83;;;5.40;99.90;;;;;;5126669;27;20051;-71
2022/01/24 12:21:01;;;;;;;44.17;35.10;;;5.40;99.90;;;;;;5109293;28;20405;-71
2022/01/24 12:23:37;;;;;;;46.28;34.38;;;5.30;99.90;;;;;;5092316;28;20046;-71
2022/01/24 12:26:12;;;;;;;43.58;33.95;;;5.90;99.90;;;;;;5126505;27;20055;-71
2022/01/24 12:28:48;;;;;;;41.17;33.45;;;5.40;99.90;;;;;;5110718;28;20054;-72
2022/01/24 12:31:35;;;;;;;41.30;34.00;;;5.50;99.90;;;;;;5110957;28;20440;-73
2022/01/24 12:34:13;;;;;;;40.72;33.22;;;5.00;99.90;;;;;;5127046;28;20039;-73
2022/01/24 12:36:46;;;;;;;40.33;32.80;;;;;;;;;;5127087;27;20402;-71
2022/01/24 12:39:25;;;;;;;36.78;30.17;;;4.80;99.90;;;;;;5111440;28;20094;-71
2022/01/24 12:41:58;;;;;;;35.85;28.98;;;5.50;99.90;;;;;;5109764;28;20071;-71
2022/01/24 12:47:13;;;;;;;37.65;29.52;;;5.60;99.90;;;;;;5114049;28;20055;-71
2022/01/24 12:49:40;;;;;;;37.42;28.85;;;5.70;99.90;;;;;;5096927;28;20047;-71
2022/01/24 12:52:20;;;;;;;33.65;26.23;;;5.40;99.90;;;;;;5112931;28;20118;-73
2022/01/24 12:54:49;;;;;;;32.70;27.33;;;5.40;99.90;;;;;;5114793;28;20035;-73
2022/01/24 12:57:18;;;;;;;37.33;28.45;;;5.10;99.90;;;;;;5113099;28;20048;-73
2022/01/24 13:00:07;;;;;;;34.13;28.52;;;5.60;99.90;;;;;;5114609;28;20108;-73
2022/01/24 13:02:35;;;;;;;32.38;27.63;;;5.60;99.90;;;;;;5130170;27;20334;-71
2022/01/24 13:05:07;;;;;;;33.05;28.55;;;5.50;99.90;;;;;;5114235;28;20036;-71
2022/01/24 13:07:34;;;;;;;34.53;29.27;;;5.50;99.90;;;;;;5113042;28;20055;-71
2022/01/24 13:10:10;;;;;;;35.80;30.83;;;5.60;99.90;;;;;;5112962;28;20067;-71
2022/01/24 13:12:37;;;;;;;36.70;32.25;;;5.60;99.90;;;;;;5113100;28;20050;-72
2022/01/24 13:15:07;;;;;;;37.40;33.33;;;4.70;99.90;;;;;;5095878;28;20112;-71
2022/01/24 13:21:01;;;;;;;37.83;33.25;;;5.90;99.90;;;;;;5112699;28;20624;-73
2022/01/24 13:23:22;;;;;;;;;;;6.20;99.90;;;;;;5113159;28;20048;-73
2022/01/24 13:25:49;;;;;;;38.22;33.38;;;5.80;99.90;;;;;;5112885;28;19916;-73
2022/01/24 13:28:19;;;;;;;40.33;34.33;;;5.30;99.90;;;;;;5096113;28;20063;-73
2022/01/24 13:30:51;;;;;;;39.05;34.67;;;5.40;99.90;;;;;;5114087;28;20040;-73
2022/01/24 13:33:20;;;;;;;39.45;34.72;;;5.40;99.90;;;;;;5114037;28;20045;-73
2022/01/24 13:35:52;;;;;;;41.35;33.80;;;5.00;99.90;;;;;;5112563;28;20144;-73
2022/01/24 13:38:19;;;;;;;41.88;35.15;;;5.50;99.90;;;;;;5112619;28;20051;-73
2022/01/24 13:41:03;;;;;;;38.83;33.60;;;4.70;99.90;;;;;;5112455;28;20499;-73
2022/01/24 13:43:47;;;;;;;40.83;34.90;;;5.30;99.90;;;;;;5112171;28;20538;-73
2022/01/24 13:46:17;;;;;;;40.00;33.15;;;5.20;99.90;;;;;;5129350;27;20051;-73
2022/01/24 13:48:46;;;;;;;37.95;33.75;;;5.50;99.90;;;;;;5113837;28;20061;-73
2022/01/24 13:51:15;;;;;;;38.15;32.88;;;5.30;99.90;;;;;;5113642;28;20384;-73
2022/01/24 13:53:51;;;;;;;35.55;30.52;;;5.50;99.90;;;;;;5113487;28;20059;-73
2022/01/24 13:56:34;;;;;;;34.08;30.30;;;4.90;99.90;;;;;;5112523;28;20450;-73
2022/01/24 13:59:01;;;;;;;30.48;27.23;;;5.40;99.90;;;;;;5129236;27;20051;-71
2022/01/24 14:01:27;;;;;;;32.65;27.85;;;;;;;;;;5129516;27;20501;-71
2022/01/24 14:04:03;;;;;;;27.25;24.13;;;5.30;99.90;;;;;;5111678;28;20047;-71
2022/01/24 14:06:34;;;;;;;30.15;26.95;;;5.50;99.90;;;;;;5113277;28;20039;-71
2022/01/24 14:09:15;;;;;;;28.15;25.15;;;4.80;99.90;;;;;;5112222;28;20499;-72
2022/01/24 14:11:46;;;;;;;30.88;26.08;;;5.30;99.90;;;;;;5111872;28;20092;-73
2022/01/24 14:14:16;;;;;;;30.95;27.52;;;5.10;99.90;;;;;;5094761;28;20485;-73
2022/01/24 14:19:09;;;;;;;33.42;28.38;;;4.80;99.90;;;;;;5113060;28;20131;-73
2022/01/24 14:21:35;;;;;;;33.33;29.17;;;4.60;99.90;;;;;;5111379;28;20043;-73
2022/01/24 14:24:01;;;;;;;33.53;28.80;;;;;;;;;;5128679;27;20051;-73
2022/01/24 14:26:29;;;;;;;36.47;28.77;;;4.90;99.90;;;;;;5111833;28;20069;-73
2022/01/24 14:29:04;;;;;;;33.30;28.80;;;5.40;99.90;;;;;;5111626;28;20486;-73
2022/01/24 14:31:30;;;;;;;36.93;28.50;;;5.10;99.90;;;;;;5095196;28;20062;-73
2022/01/24 14:34:00;;;;;;;33.22;28.15;;;5.80;99.90;;;;;;5111413;28;20300;-73
2022/01/24 14:36:26;;;;;;;33.40;29.35;;;5.30;99.90;;;;;;5111316;28;20510;-72
2022/01/24 14:39:02;;;;;;;34.30;29.30;;;5.90;99.90;;;;;;5111374;28;20093;-73
2022/01/24 14:41:34;;;;;;;36.38;31.40;;;5.30;99.90;;;;;;5112768;28;20232;-72
2022/01/24 14:46:52;;;;;;;37.15;30.88;;;5.80;99.90;;;;;;5111008;28;20051;-71
2022/01/24 14:49:24;;;;;;;39.30;29.15;;;5.20;99.90;;;;;;5111397;28;20035;-71
2022/01/24 14:51:52;;;;;;;38.58;32.08;;;5.10;99.90;;;;;;5094275;28;20036;-71
2022/01/24 14:54:23;;;;;;;37.08;31.50;;;4.60;99.90;;;;;;5112565;28;20051;-71
2022/01/24 14:56:51;;;;;;;38.92;31.52;;;5.70;99.90;;;;;;5110610;28;20043;-71
2022/01/24 14:59:19;;;;;;;34.92;30.50;;;5.30;99.90;;;;;;5112971;28;20053;-71
2022/01/24 15:01:45;;;;;;;39.25;32.13;;;5.40;99.90;;;;;;5112750;28;20096;-71
2022/01/24 15:04:11;;;;;;;40.58;32.15;;;5.20;99.90;;;;;;5112589;28;20491;-71
2022/01/24 15:06:36;;;;;;;40.60;32.72;;;5.30;99.90;;;;;;5110586;28;20085;-71
2022/01/24 15:09:07;;;;;;;41.38;33.92;;;5.30;99.90;;;;;;5112327;28;20433;-71
2022/01/24 15:11:35;;;;;;;40.42;33.03;;;5.30;99.90;;;;;;5111122;27;20069;-71
2022/01/24 15:14:11;;;;;;;39.28;32.95;;;4.80;99.90;;;;;;5112074;28;20148;-72
2022/01/24 15:16:54;;;;;;;;;;;5.10;99.90;;;;;;5112350;28;20498;-71
2022/01/24 15:27:46;;;;;;;42.13;33.30;;;5.20;99.90;;;;;;5111713;28;20115;-72